Terminal Aerodrome Forecast
Issued by NWS

Current Version | Previous Version | Graphics & Text | Print | Product List | Glossary On
Versions: 1 2 3 4 5 6 7 8 9 10 11 12 13 14 15 16 17 18 19
681
FTUS41 KRLX 091757 RRA
TAFCKB
TAF
KCKB 091757Z 0918/1018 24010G18KT 4SM -SHSN SCT010 OVC020
      TEMPO 0920/0924 2SM -SHSN BR BKN010
     FM100300 26009KT 3SM -SHSN OVC015
     FM100700 25009KT 5SM -SHSN OVC015
     FM101500 27009KT 5SM -SHSN OVC025=

USA.gov is the U.S. government's official web portal to all federal, state and local government web resources and services.